createdAt,value
2022-11-29T00:01:14.511Z,101034.75
2022-11-29T00:03:41.780Z,101034.75
2022-11-29T00:06:14.748Z,101035.59
2022-11-29T00:08:42.442Z,101030.38
2022-11-29T00:11:38.271Z,101039.06
2022-11-29T00:14:10.501Z,101035.59
2022-11-29T00:16:37.830Z,101034.72
2022-11-29T00:19:05.066Z,101041.66
2022-11-29T00:21:32.303Z,101046.88
2022-11-29T00:24:08.947Z,101048.59
2022-11-29T00:26:37.168Z,101047.75
2022-11-29T00:29:04.717Z,101045.16
2022-11-29T00:31:32.920Z,101046.00
2022-11-29T00:34:02.993Z,101048.63
2022-11-29T00:36:30.659Z,101046.03
2022-11-29T00:38:57.895Z,101044.28
2022-11-29T00:41:25.259Z,101042.53
2022-11-29T00:43:53.224Z,101041.69
2022-11-29T00:46:20.616Z,101041.69
2022-11-29T00:48:47.868Z,101045.16
2022-11-29T00:51:15.192Z,101038.19
2022-11-29T00:53:42.417Z,101048.59
2022-11-29T00:56:10.128Z,101040.78
2022-11-29T00:58:37.566Z,101039.94
2022-11-29T01:01:05.517Z,101038.19
2022-11-29T01:03:33.218Z,101044.25
2022-11-29T01:06:12.351Z,101043.41
2022-11-29T01:08:39.982Z,101046.88
2022-11-29T01:11:18.799Z,101041.66
2022-11-29T01:13:45.982Z,101045.09
2022-11-29T01:16:14.663Z,101051.19
2022-11-29T01:18:42.152Z,101045.97
2022-11-29T01:21:12.525Z,101041.66
2022-11-29T01:23:40.200Z,101039.06
2022-11-29T01:26:10.033Z,101043.38
2022-11-29T01:28:38.099Z,101037.28
2022-11-29T01:31:14.367Z,101044.25
2022-11-29T01:33:42.292Z,101036.44
2022-11-29T01:36:10.377Z,101046.88
2022-11-29T01:38:38.079Z,101041.66
2022-11-29T01:41:08.525Z,101040.78
2022-11-29T01:43:56.593Z,101041.69
2022-11-29T01:46:23.862Z,101039.03
2022-11-29T01:48:54.040Z,101041.69
2022-11-29T01:51:21.324Z,101042.56
2022-11-29T01:53:48.592Z,101044.28
2022-11-29T01:56:16.418Z,101036.47
2022-11-29T01:58:45.025Z,101044.25
2022-11-29T02:01:12.852Z,101039.94
2022-11-29T02:03:40.130Z,101036.47
2022-11-29T02:06:08.364Z,101039.91
2022-11-29T02:08:43.603Z,101039.06
2022-11-29T02:11:52.664Z,101046.00
2022-11-29T02:14:32.968Z,101039.06
2022-11-29T02:17:07.364Z,101037.31
2022-11-29T02:19:47.394Z,101032.13
2022-11-29T02:22:33.773Z,101036.44
2022-11-29T02:25:13.333Z,101036.47
2022-11-29T02:28:20.836Z,101046.84
2022-11-29T02:31:06.609Z,101042.53
2022-11-29T02:34:11.581Z,101043.38
2022-11-29T02:37:16.526Z,101047.69
2022-11-29T02:39:43.644Z,101043.38
2022-11-29T02:42:19.662Z,101055.56
2022-11-29T02:45:12.706Z,101053.78
2022-11-29T02:48:11.310Z,101057.25
2022-11-29T02:51:04.409Z,101059.88
2022-11-29T02:53:47.323Z,101053.78
2022-11-29T02:56:38.912Z,101059.00
2022-11-29T02:59:23.747Z,101057.28
2022-11-29T03:02:15.185Z,101056.41
2022-11-29T03:05:04.302Z,101057.28
2022-11-29T03:08:03.893Z,101058.16
2022-11-29T03:10:52.501Z,101063.31
2022-11-29T03:13:45.912Z,101065.91
2022-11-29T03:16:42.840Z,101065.91
2022-11-29T03:19:49.040Z,101075.47
2022-11-29T03:22:55.539Z,101071.97
2022-11-29T03:25:53.569Z,101076.34
2022-11-29T03:28:31.820Z,101074.63
2022-11-29T03:31:16.386Z,101075.47
2022-11-29T03:33:56.589Z,101072.91
2022-11-29T03:36:36.603Z,101078.94
2022-11-29T03:39:07.771Z,101079.81
2022-11-29T03:41:46.964Z,101084.13
2022-11-29T03:44:17.804Z,101085.91
2022-11-29T03:47:09.103Z,101086.81
2022-11-29T03:49:45.979Z,101085.06
2022-11-29T03:52:34.769Z,101081.56
2022-11-29T03:55:45.145Z,101085.91
2022-11-29T03:58:39.585Z,101090.25
2022-11-29T04:01:37.942Z,101086.75
2022-11-29T04:04:26.833Z,101086.75
2022-11-29T04:07:33.624Z,101090.25
2022-11-29T04:10:28.892Z,101087.66
2022-11-29T04:13:14.458Z,101092.88
2022-11-29T04:16:18.384Z,101085.91
2022-11-29T04:19:15.891Z,101092.00
2022-11-29T04:22:24.049Z,101091.97
2022-11-29T04:25:13.454Z,101091.13
2022-11-29T04:28:06.325Z,101094.59
2022-11-29T04:31:03.176Z,101094.63
2022-11-29T04:34:12.646Z,101098.94
2022-11-29T04:37:04.050Z,101092.00
2022-11-29T04:40:14.267Z,101104.16
2022-11-29T04:43:11.328Z,101098.06
2022-11-29T04:46:15.891Z,101101.53
2022-11-29T04:49:04.075Z,101105.88
2022-11-29T04:52:01.478Z,101106.75
2022-11-29T04:54:49.979Z,101103.25
2022-11-29T04:57:46.439Z,101103.28
2022-11-29T05:00:16.092Z,101110.22
2022-11-29T05:03:00.722Z,101109.34
2022-11-29T05:05:42.874Z,101112.81
2022-11-29T05:08:39.198Z,101111.94
2022-11-29T05:11:38.310Z,101113.69
2022-11-29T05:14:25.393Z,101116.31
2022-11-29T05:17:26.418Z,101122.34
2022-11-29T05:20:30.588Z,101124.97
2022-11-29T05:23:29.470Z,101124.09
2022-11-29T05:26:05.451Z,101127.56
2022-11-29T05:29:01.024Z,101127.56
2022-11-29T05:31:49.993Z,101123.19
2022-11-29T05:34:39.573Z,101132.72
2022-11-29T05:37:39.406Z,101132.78
2022-11-29T05:40:49.311Z,101134.50
2022-11-29T05:43:32.227Z,101136.22
2022-11-29T05:46:17.532Z,101133.63
2022-11-29T05:48:56.840Z,101144.03
2022-11-29T05:51:50.659Z,101138.84
2022-11-29T05:54:29.572Z,101144.94
2022-11-29T05:57:08.715Z,101146.66
2022-11-29T05:59:38.999Z,101151.88
2022-11-29T06:02:31.994Z,101157.06
2022-11-29T06:05:36.069Z,101156.19
2022-11-29T06:08:16.767Z,101162.28
2022-11-29T06:11:02.888Z,101164.03
2022-11-29T06:14:00.599Z,101168.34
2022-11-29T06:16:30.778Z,101177.06
2022-11-29T06:19:31.653Z,101177.03
2022-11-29T06:22:27.932Z,101177.06
2022-11-29T06:25:37.604Z,101185.72
2022-11-29T06:28:31.545Z,101185.72
2022-11-29T06:31:26.083Z,101190.06
2022-11-29T06:33:56.575Z,101195.28
2022-11-29T06:36:30.090Z,101192.69
2022-11-29T06:38:57.334Z,101195.28
2022-11-29T06:41:24.765Z,101199.63
2022-11-29T06:43:52.387Z,101194.41
2022-11-29T06:46:37.820Z,101208.31
2022-11-29T06:49:37.643Z,101210.91
2022-11-29T06:52:23.076Z,101209.16
2022-11-29T06:55:01.262Z,101210.00
2022-11-29T06:57:47.286Z,101211.75
2022-11-29T07:00:21.647Z,101208.31
2022-11-29T07:03:03.848Z,101206.56
2022-11-29T07:05:33.169Z,101219.56
2022-11-29T07:08:03.985Z,101218.72
2022-11-29T07:10:33.735Z,101212.63
2022-11-29T07:13:01.148Z,101212.63
2022-11-29T07:15:28.817Z,101225.66
2022-11-29T07:18:03.759Z,101220.44
2022-11-29T07:20:56.828Z,101217.81
2022-11-29T07:23:51.404Z,101220.44
2022-11-29T07:26:35.502Z,101227.38
2022-11-29T07:29:27.746Z,101223.03
2022-11-29T07:32:23.733Z,101229.13
2022-11-29T07:35:19.453Z,101226.50
2022-11-29T07:38:17.881Z,101229.94
2022-11-29T07:41:06.837Z,101231.72
2022-11-29T07:43:34.076Z,101222.16
2022-11-29T07:46:01.493Z,101229.06
2022-11-29T07:48:28.680Z,101243.00
2022-11-29T07:50:56.345Z,101233.44
2022-11-29T07:53:24.146Z,101234.31
2022-11-29T07:55:53.066Z,101235.16
2022-11-29T07:58:20.284Z,101240.38
2022-11-29T08:00:47.568Z,101249.06
2022-11-29T08:03:15.031Z,101253.44
2022-11-29T08:05:46.546Z,101253.41
2022-11-29T08:08:13.886Z,101249.94
2022-11-29T08:10:41.070Z,101256.88
2022-11-29T08:13:08.275Z,101258.63
2022-11-29T08:15:35.497Z,101256.03
2022-11-29T08:18:03.353Z,101260.38
2022-11-29T08:20:30.542Z,101263.84
2022-11-29T08:22:59.163Z,101260.38
2022-11-29T08:25:27.191Z,101268.22
2022-11-29T08:27:54.812Z,101267.31
2022-11-29T08:30:22.638Z,101263.84
2022-11-29T08:32:51.804Z,101276.00
2022-11-29T08:35:20.902Z,101268.19
2022-11-29T08:37:48.118Z,101270.78
2022-11-29T08:40:15.822Z,101261.22
2022-11-29T08:42:43.151Z,101269.91
2022-11-29T08:45:11.044Z,101273.38
2022-11-29T08:47:39.072Z,101275.13
2022-11-29T08:50:14.951Z,101263.84
2022-11-29T08:53:05.922Z,101260.34
2022-11-29T08:55:35.302Z,101269.03
2022-11-29T08:58:06.535Z,101268.19
2022-11-29T09:00:34.470Z,101280.34
2022-11-29T09:03:24.792Z,101276.88
2022-11-29T09:05:52.465Z,101278.59
2022-11-29T09:08:19.804Z,101284.66
2022-11-29T09:10:47.509Z,101280.34
2022-11-29T09:13:14.703Z,101279.44
2022-11-29T09:15:43.336Z,101282.94
2022-11-29T09:18:10.691Z,101285.50
2022-11-29T09:20:38.063Z,101290.72
2022-11-29T09:23:05.241Z,101295.06
2022-11-29T09:25:32.441Z,101295.97
2022-11-29T09:28:03.550Z,101298.56
2022-11-29T09:30:31.735Z,101292.50
2022-11-29T09:33:03.892Z,101294.22
2022-11-29T09:35:31.287Z,101293.31
2022-11-29T09:37:58.608Z,101296.78
2022-11-29T09:40:40.305Z,101297.69
2022-11-29T09:43:34.417Z,101291.53
2022-11-29T09:46:22.934Z,101291.53
2022-11-29T09:49:21.902Z,101296.75
2022-11-29T09:52:10.905Z,101291.53
2022-11-29T09:54:56.758Z,101301.03
2022-11-29T09:57:26.972Z,101294.13
2022-11-29T10:00:02.145Z,101293.22
2022-11-29T10:02:37.484Z,101301.06
2022-11-29T10:05:18.867Z,101296.69
2022-11-29T10:07:58.680Z,101304.53
2022-11-29T10:10:33.671Z,101307.94
2022-11-29T10:13:07.396Z,101307.97
2022-11-29T10:15:39.173Z,101311.44
2022-11-29T10:18:19.488Z,101301.91
2022-11-29T10:20:49.464Z,101307.19
2022-11-29T10:23:43.116Z,101309.69
2022-11-29T10:26:12.202Z,101315.72
2022-11-29T10:28:44.926Z,101314.88
2022-11-29T10:31:40.148Z,101315.78
2022-11-29T10:34:19.272Z,101319.25
2022-11-29T10:36:50.450Z,101318.34
2022-11-29T10:39:25.026Z,101320.88
2022-11-29T10:41:55.832Z,101322.63
2022-11-29T10:44:23.423Z,101324.34
2022-11-29T10:46:50.749Z,101320.88
2022-11-29T10:49:19.892Z,101322.63
2022-11-29T10:51:47.550Z,101310.50
2022-11-29T10:54:36.437Z,101321.84
2022-11-29T10:57:13.791Z,101322.72
2022-11-29T10:59:41.380Z,101324.38
2022-11-29T11:02:19.275Z,101315.66
2022-11-29T11:04:48.231Z,101317.41
2022-11-29T11:07:28.057Z,101321.78
2022-11-29T11:09:57.160Z,101317.44
2022-11-29T11:12:30.985Z,101313.97
2022-11-29T11:15:28.607Z,101316.56
2022-11-29T11:18:00.967Z,101311.34
2022-11-29T11:20:32.924Z,101316.56
2022-11-29T11:23:11.821Z,101314.78
2022-11-29T11:25:40.032Z,101320.00
2022-11-29T11:28:21.243Z,101320.88
2022-11-29T11:31:05.619Z,101317.41
2022-11-29T11:33:35.288Z,101322.63
2022-11-29T11:36:12.326Z,101318.19
2022-11-29T11:38:42.264Z,101324.34
2022-11-29T11:41:54.135Z,101313.84
2022-11-29T11:44:49.819Z,101330.41
2022-11-29T11:47:27.908Z,101327.88
2022-11-29T11:50:03.898Z,101323.56
2022-11-29T11:52:49.899Z,101328.69
2022-11-29T11:55:27.952Z,101331.28
2022-11-29T11:58:16.245Z,101326.91
2022-11-29T12:01:04.095Z,101322.56
2022-11-29T12:03:56.622Z,101327.72
2022-11-29T12:06:35.938Z,101327.72
2022-11-29T12:09:09.870Z,101330.41
2022-11-29T12:11:51.449Z,101336.50
2022-11-29T12:14:25.378Z,101328.56
2022-11-29T12:16:54.589Z,101343.38
2022-11-29T12:19:27.954Z,101333.78
2022-11-29T12:21:59.874Z,101334.69
2022-11-29T12:24:41.576Z,101338.16
2022-11-29T12:27:12.352Z,101339.06
2022-11-29T12:29:39.561Z,101344.25
2022-11-29T12:32:20.296Z,101344.19
2022-11-29T12:35:01.892Z,101350.34
2022-11-29T12:37:36.499Z,101346.81
2022-11-29T12:40:14.400Z,101354.63
2022-11-29T12:42:56.673Z,101353.72
2022-11-29T12:45:39.235Z,101353.75
2022-11-29T12:48:25.506Z,101353.75
2022-11-29T12:51:12.948Z,101362.47
2022-11-29T12:54:02.335Z,101371.19
2022-11-29T12:56:34.560Z,101376.47
2022-11-29T12:59:22.975Z,101373.03
2022-11-29T13:01:59.451Z,101375.63
2022-11-29T13:04:45.032Z,101379.97
2022-11-29T13:07:43.852Z,101379.06
2022-11-29T13:10:35.621Z,101373.84
2022-11-29T13:13:21.367Z,101378.13
2022-11-29T13:15:55.319Z,101382.44
2022-11-29T13:18:28.954Z,101384.25
2022-11-29T13:21:09.279Z,101384.25
2022-11-29T13:24:07.461Z,101383.47
2022-11-29T13:26:28.257Z,101391.28
2022-11-29T13:28:55.461Z,101387.84
2022-11-29T13:31:24.908Z,101393.06
2022-11-29T13:34:04.323Z,101394.78
2022-11-29T13:36:57.270Z,101391.41
2022-11-29T13:39:46.166Z,101388.78
2022-11-29T13:42:31.839Z,101390.50
2022-11-29T13:45:16.381Z,101396.59
2022-11-29T13:47:52.090Z,101394.84
2022-11-29T13:50:44.338Z,101392.22
2022-11-29T13:53:23.682Z,101393.97
2022-11-29T13:55:59.995Z,101393.16
2022-11-29T13:58:33.129Z,101404.47
2022-11-29T14:01:08.785Z,101407.13
2022-11-29T14:03:49.231Z,101403.66
2022-11-29T14:06:21.113Z,101408.88
2022-11-29T14:12:22.446Z,101407.16
2022-11-29T14:14:58.696Z,101408.00
2022-11-29T14:17:52.835Z,101414.09
2022-11-29T14:20:24.922Z,101409.72
2022-11-29T14:23:13.499Z,101414.09
2022-11-29T14:26:03.617Z,101408.91
2022-11-29T14:28:39.271Z,101406.28
2022-11-29T14:31:10.340Z,101416.75
2022-11-29T14:33:58.210Z,101413.25
2022-11-29T14:36:48.278Z,101410.63
2022-11-29T14:39:37.596Z,101411.50
2022-11-29T14:42:15.869Z,101421.97
2022-11-29T14:44:52.855Z,101425.44
2022-11-29T14:47:24.496Z,101422.84
2022-11-29T14:49:54.381Z,101428.91
2022-11-29T14:52:28.402Z,101427.16
2022-11-29T14:55:07.238Z,101427.19
2022-11-29T14:57:57.299Z,101433.28
2022-11-29T15:00:33.146Z,101431.53
2022-11-29T15:03:15.498Z,101434.13
2022-11-29T15:05:45.012Z,101441.09
2022-11-29T15:08:35.847Z,101428.06
2022-11-29T15:11:10.831Z,101442.84
2022-11-29T15:13:44.336Z,101441.13
2022-11-29T15:16:24.277Z,101440.22
2022-11-29T15:19:14.303Z,101445.44
2022-11-29T15:21:54.143Z,101441.97
2022-11-29T15:24:26.786Z,101441.06
2022-11-29T15:27:00.456Z,101450.63
2022-11-29T15:29:29.358Z,101452.38
2022-11-29T15:31:59.199Z,101451.50
2022-11-29T15:34:34.278Z,101454.13
2022-11-29T15:37:01.876Z,101463.72
2022-11-29T15:39:32.333Z,101461.13
2022-11-29T15:42:09.099Z,101462.84
2022-11-29T15:44:36.691Z,101469.81
2022-11-29T15:47:21.517Z,101468.06
2022-11-29T15:49:49.538Z,101468.06
2022-11-29T15:52:27.805Z,101471.53
2022-11-29T15:55:01.005Z,101471.53
2022-11-29T15:57:32.722Z,101476.75
2022-11-29T16:00:02.635Z,101481.97
2022-11-29T16:02:35.090Z,101475.03
2022-11-29T16:05:11.076Z,101482.88
2022-11-29T16:07:39.845Z,101483.72
2022-11-29T16:10:20.954Z,101486.34
2022-11-29T16:12:57.761Z,101483.72
2022-11-29T16:15:28.705Z,101488.09
2022-11-29T16:17:56.077Z,101490.69
2022-11-29T16:20:25.434Z,101496.78
2022-11-29T16:23:11.733Z,101498.50
2022-11-29T16:25:58.899Z,101508.09
2022-11-29T16:28:35.158Z,101505.47
2022-11-29T16:31:04.812Z,101495.03
2022-11-29T16:33:32.302Z,101506.34
2022-11-29T16:36:21.078Z,101509.81
2022-11-29T16:38:54.480Z,101507.19
2022-11-29T16:41:36.519Z,101501.13
2022-11-29T16:44:04.837Z,101509.81
2022-11-29T16:46:42.674Z,101508.97
2022-11-29T16:49:33.466Z,101511.56
2022-11-29T16:52:00.930Z,101511.56
2022-11-29T16:54:34.593Z,101511.56
2022-11-29T16:57:08.907Z,101512.41
2022-11-29T16:59:36.421Z,101514.19
2022-11-29T17:02:05.765Z,101519.41
2022-11-29T17:04:32.942Z,101514.19
2022-11-29T17:07:00.183Z,101518.50
2022-11-29T17:09:30.707Z,101521.13
2022-11-29T17:12:02.099Z,101514.16
2022-11-29T17:14:30.065Z,101518.50
2022-11-29T17:16:59.692Z,101528.94
2022-11-29T17:19:29.792Z,101520.25
2022-11-29T17:21:57.230Z,101528.06
2022-11-29T17:24:24.894Z,101524.59
2022-11-29T17:26:52.523Z,101530.69
2022-11-29T17:29:20.011Z,101524.59
2022-11-29T17:31:50.371Z,101527.22
2022-11-29T17:34:18.989Z,101528.06
2022-11-29T17:36:46.321Z,101532.44
2022-11-29T17:39:15.539Z,101531.53
2022-11-29T17:41:42.705Z,101525.47
2022-11-29T17:44:09.914Z,101533.31
2022-11-29T17:46:37.481Z,101535.06
2022-11-29T17:49:07.851Z,101538.50
2022-11-29T17:51:54.024Z,101549.84
2022-11-29T17:54:22.488Z,101544.59
2022-11-29T17:56:49.957Z,101540.25
2022-11-29T17:59:17.204Z,101546.34
2022-11-29T18:01:46.906Z,101548.06
2022-11-29T18:04:17.567Z,101548.94
2022-11-29T18:06:49.433Z,101551.56
2022-11-29T18:09:17.415Z,101557.63
2022-11-29T18:11:48.631Z,101549.81
2022-11-29T18:14:18.993Z,101553.28
2022-11-29T18:16:46.424Z,101556.78
2022-11-29T18:19:16.305Z,101555.03
2022-11-29T18:21:43.732Z,101560.28
2022-11-29T18:24:11.222Z,101558.53
2022-11-29T18:26:39.044Z,101561.13
2022-11-29T18:29:06.879Z,101566.38
2022-11-29T18:31:36.078Z,101569.81
2022-11-29T18:34:09.760Z,101566.34
2022-11-29T18:36:40.111Z,101567.19
2022-11-29T18:39:10.299Z,101568.94
2022-11-29T18:41:38.236Z,101567.22
2022-11-29T18:44:07.720Z,101570.69
2022-11-29T18:46:37.200Z,101576.81
2022-11-29T18:49:09.307Z,101578.53
2022-11-29T18:51:37.983Z,101580.25
2022-11-29T18:54:05.660Z,101577.66
2022-11-29T18:56:34.402Z,101588.13
2022-11-29T18:59:04.640Z,101585.50
2022-11-29T19:01:34.357Z,101581.13
2022-11-29T19:04:02.187Z,101584.63
2022-11-29T19:06:38.923Z,101580.28
2022-11-29T19:09:08.513Z,101581.16
2022-11-29T19:11:36.226Z,101576.81
2022-11-29T19:14:06.393Z,101582.03
2022-11-29T19:16:35.111Z,101583.75
2022-11-29T19:19:02.572Z,101580.28
2022-11-29T19:21:34.550Z,101589.00
2022-11-29T19:24:04.678Z,101588.13
2022-11-29T19:26:32.632Z,101577.66
2022-11-29T19:29:01.238Z,101585.53
2022-11-29T19:31:28.866Z,101587.25
2022-11-29T19:33:56.488Z,101580.28
2022-11-29T19:36:29.334Z,101576.81
2022-11-29T19:38:57.689Z,101578.56
2022-11-29T19:41:29.981Z,101575.94
2022-11-29T19:43:59.478Z,101590.72
2022-11-29T19:46:29.090Z,101588.09
2022-11-29T19:48:57.815Z,101594.22
2022-11-29T19:51:26.759Z,101583.78
2022-11-29T19:53:56.505Z,101591.63
2022-11-29T19:56:24.143Z,101594.19
2022-11-29T19:58:52.229Z,101583.78
2022-11-29T20:01:25.332Z,101587.25
2022-11-29T20:03:54.845Z,101595.97
2022-11-29T20:06:21.999Z,101597.69
2022-11-29T20:08:50.456Z,101603.78
2022-11-29T20:11:20.909Z,101602.03
2022-11-29T20:14:01.752Z,101609.88
2022-11-29T20:16:29.743Z,101604.66
2022-11-29T20:18:57.873Z,101609.00
2022-11-29T20:21:27.712Z,101610.75
2022-11-29T20:24:01.139Z,101612.47
2022-11-29T20:26:29.545Z,101609.00
2022-11-29T20:28:56.903Z,101602.03
2022-11-29T20:31:24.203Z,101602.91
2022-11-29T20:33:53.275Z,101609.00
2022-11-29T20:36:22.869Z,101607.28
2022-11-29T20:39:12.265Z,101600.31
2022-11-29T20:42:04.686Z,101608.13
2022-11-29T20:44:39.156Z,101615.09
2022-11-29T20:47:12.985Z,101607.28
2022-11-29T20:49:40.314Z,101609.88
2022-11-29T20:52:09.676Z,101614.25
2022-11-29T20:54:36.841Z,101609.88
2022-11-29T20:57:04.062Z,101623.81
2022-11-29T20:59:31.459Z,101627.31
2022-11-29T21:02:01.057Z,101624.66
2022-11-29T21:04:28.311Z,101624.66
2022-11-29T21:06:55.489Z,101629.03
2022-11-29T21:09:22.752Z,101632.53
2022-11-29T21:11:50.123Z,101635.13
2022-11-29T21:14:17.656Z,101622.94
2022-11-29T21:16:45.136Z,101626.44
2022-11-29T21:19:18.761Z,101635.13
2022-11-29T21:22:02.661Z,101637.72
2022-11-29T21:25:04.086Z,101635.97
2022-11-29T21:27:35.588Z,101642.97
2022-11-29T21:30:05.455Z,101640.34
2022-11-29T21:32:33.208Z,101642.97
2022-11-29T21:35:00.408Z,101646.44
2022-11-29T21:37:30.472Z,101645.59
2022-11-29T21:39:57.720Z,101649.91
2022-11-29T21:42:24.933Z,101651.66
2022-11-29T21:44:52.202Z,101648.19
2022-11-29T21:47:19.418Z,101646.44
2022-11-29T21:49:46.808Z,101649.03
2022-11-29T21:52:19.065Z,101655.16
2022-11-29T21:54:49.473Z,101643.84
2022-11-29T21:57:16.732Z,101650.78
2022-11-29T21:59:44.152Z,101656.88
2022-11-29T22:02:11.490Z,101651.66
2022-11-29T22:04:38.795Z,101646.41
2022-11-29T22:07:06.022Z,101651.66
2022-11-29T22:09:33.396Z,101651.66
2022-11-29T22:12:06.552Z,101651.66
2022-11-29T22:14:42.336Z,101652.53
2022-11-29T22:17:09.565Z,101655.16
2022-11-29T22:19:37.772Z,101660.38
2022-11-29T22:22:06.371Z,101657.75
2022-11-29T22:24:38.887Z,101660.38
2022-11-29T22:27:06.359Z,101656.88
2022-11-29T22:29:33.784Z,101658.63
2022-11-29T22:32:02.240Z,101660.34
2022-11-29T22:34:29.463Z,101664.69
2022-11-29T22:36:56.790Z,101660.38
2022-11-29T22:39:24.284Z,101670.81
2022-11-29T22:41:54.689Z,101664.69
2022-11-29T22:44:23.068Z,101661.22
2022-11-29T22:46:50.695Z,101656.88
2022-11-29T22:49:18.039Z,101668.19
2022-11-29T22:51:45.264Z,101663.84
2022-11-29T22:54:15.466Z,101671.66
2022-11-29T22:56:44.005Z,101664.72
2022-11-29T22:59:11.475Z,101673.41
2022-11-29T23:01:42.119Z,101667.34
2022-11-29T23:04:11.164Z,101674.28
2022-11-29T23:06:43.683Z,101671.66
2022-11-29T23:09:21.149Z,101675.16
2022-11-29T23:11:56.256Z,101678.63
2022-11-29T23:14:25.497Z,101670.78
2022-11-29T23:16:52.943Z,101672.53
2022-11-29T23:19:20.742Z,101677.72
2022-11-29T23:21:48.380Z,101676.88
2022-11-29T23:24:17.104Z,101672.53
2022-11-29T23:26:47.317Z,101675.13
2022-11-29T23:29:17.108Z,101676.03
2022-11-29T23:31:45.017Z,101680.38
2022-11-29T23:34:13.137Z,101676.88
2022-11-29T23:36:40.415Z,101674.25
2022-11-29T23:39:09.711Z,101675.97
2022-11-29T23:41:37.493Z,101677.72
2022-11-29T23:44:05.886Z,101676.88
2022-11-29T23:46:34.441Z,101677.75
2022-11-29T23:49:01.689Z,101673.38
2022-11-29T23:51:28.903Z,101683.81
2022-11-29T23:53:56.286Z,101669.91
2022-11-29T23:56:23.597Z,101670.78
2022-11-29T23:58:51.260Z,101674.28
